sensor_id;sensor_type;location;lat;lon;timestamp;P1;durP1;ratioP1;P2;durP2;ratioP2
46230;SDS011;31949;51.404;-0.038;2023-04-06T00:01:16;13.02;;;9.77;;
46230;SDS011;31949;51.404;-0.038;2023-04-06T00:03:43;12.85;;;9.82;;
46230;SDS011;31949;51.404;-0.038;2023-04-06T00:06:11;11.80;;;9.48;;
46230;SDS011;31949;51.404;-0.038;2023-04-06T00:08:38;12.73;;;9.18;;
46230;SDS011;31949;51.404;-0.038;2023-04-06T00:11:06;13.40;;;9.35;;
46230;SDS011;31949;51.404;-0.038;2023-04-06T00:13:33;11.45;;;7.70;;
46230;SDS011;31949;51.404;-0.038;2023-04-06T00:16:00;13.05;;;10.07;;
46230;SDS011;31949;51.404;-0.038;2023-04-06T00:18:27;10.63;;;7.28;;
46230;SDS011;31949;51.404;-0.038;2023-04-06T00:20:57;11.25;;;9.35;;
46230;SDS011;31949;51.404;-0.038;2023-04-06T00:23:24;8.48;;;7.40;;
46230;SDS011;31949;51.404;-0.038;2023-04-06T00:25:52;9.93;;;7.68;;
46230;SDS011;31949;51.404;-0.038;2023-04-06T00:28:19;8.55;;;7.53;;
46230;SDS011;31949;51.404;-0.038;2023-04-06T00:33:21;11.95;;;6.55;;
46230;SDS011;31949;51.404;-0.038;2023-04-06T00:35:49;8.90;;;7.18;;
46230;SDS011;31949;51.404;-0.038;2023-04-06T00:38:17;9.95;;;7.47;;
46230;SDS011;31949;51.404;-0.038;2023-04-06T00:40:44;8.13;;;7.32;;
46230;SDS011;31949;51.404;-0.038;2023-04-06T00:43:12;7.55;;;6.85;;
46230;SDS011;31949;51.404;-0.038;2023-04-06T00:45:40;6.88;;;6.00;;
46230;SDS011;31949;51.404;-0.038;2023-04-06T00:48:13;5.28;;;4.50;;
46230;SDS011;31949;51.404;-0.038;2023-04-06T00:50:40;3.85;;;3.45;;
46230;SDS011;31949;51.404;-0.038;2023-04-06T00:53:07;4.50;;;3.45;;
46230;SDS011;31949;51.404;-0.038;2023-04-06T00:55:34;4.28;;;3.88;;
46230;SDS011;31949;51.404;-0.038;2023-04-06T00:58:02;4.57;;;4.13;;
46230;SDS011;31949;51.404;-0.038;2023-04-06T01:00:37;3.65;;;3.35;;
46230;SDS011;31949;51.404;-0.038;2023-04-06T01:03:05;3.88;;;3.10;;
46230;SDS011;31949;51.404;-0.038;2023-04-06T01:05:38;6.75;;;3.80;;
46230;SDS011;31949;51.404;-0.038;2023-04-06T01:08:15;3.55;;;2.40;;
46230;SDS011;31949;51.404;-0.038;2023-04-06T01:10:42;2.88;;;2.63;;
46230;SDS011;31949;51.404;-0.038;2023-04-06T01:13:20;2.70;;;2.50;;
46230;SDS011;31949;51.404;-0.038;2023-04-06T01:15:59;3.03;;;2.75;;
46230;SDS011;31949;51.404;-0.038;2023-04-06T01:18:41;2.70;;;2.33;;
46230;SDS011;31949;51.404;-0.038;2023-04-06T01:21:16;2.67;;;2.30;;
46230;SDS011;31949;51.404;-0.038;2023-04-06T01:23:57;2.90;;;2.70;;
46230;SDS011;31949;51.404;-0.038;2023-04-06T01:26:32;2.83;;;2.63;;
46230;SDS011;31949;51.404;-0.038;2023-04-06T01:29:05;2.97;;;2.72;;
46230;SDS011;31949;51.404;-0.038;2023-04-06T01:31:32;2.40;;;2.20;;
46230;SDS011;31949;51.404;-0.038;2023-04-06T01:33:59;2.50;;;2.30;;
46230;SDS011;31949;51.404;-0.038;2023-04-06T01:36:27;3.08;;;2.67;;
46230;SDS011;31949;51.404;-0.038;2023-04-06T01:39:03;3.03;;;2.60;;
46230;SDS011;31949;51.404;-0.038;2023-04-06T01:41:34;2.20;;;2.00;;
46230;SDS011;31949;51.404;-0.038;2023-04-06T01:44:01;2.58;;;2.38;;
46230;SDS011;31949;51.404;-0.038;2023-04-06T01:46:30;3.08;;;2.63;;
46230;SDS011;31949;51.404;-0.038;2023-04-06T01:48:58;2.85;;;2.53;;
46230;SDS011;31949;51.404;-0.038;2023-04-06T01:51:34;3.25;;;2.50;;
46230;SDS011;31949;51.404;-0.038;2023-04-06T01:54:04;2.67;;;2.47;;
46230;SDS011;31949;51.404;-0.038;2023-04-06T01:56:51;2.33;;;1.85;;
46230;SDS011;31949;51.404;-0.038;2023-04-06T01:59:27;2.20;;;2.00;;
46230;SDS011;31949;51.404;-0.038;2023-04-06T02:01:55;2.00;;;1.90;;
46230;SDS011;31949;51.404;-0.038;2023-04-06T02:04:24;2.33;;;2.13;;
46230;SDS011;31949;51.404;-0.038;2023-04-06T02:06:59;2.53;;;2.33;;
46230;SDS011;31949;51.404;-0.038;2023-04-06T02:09:28;2.40;;;2.20;;
46230;SDS011;31949;51.404;-0.038;2023-04-06T02:11:56;2.00;;;1.75;;
46230;SDS011;31949;51.404;-0.038;2023-04-06T02:14:24;1.88;;;1.60;;
46230;SDS011;31949;51.404;-0.038;2023-04-06T02:16:55;2.45;;;2.25;;
46230;SDS011;31949;51.404;-0.038;2023-04-06T02:19:23;2.78;;;1.60;;
46230;SDS011;31949;51.404;-0.038;2023-04-06T02:21:50;1.73;;;1.63;;
46230;SDS011;31949;51.404;-0.038;2023-04-06T02:24:17;1.90;;;1.80;;
46230;SDS011;31949;51.404;-0.038;2023-04-06T02:26:45;1.65;;;1.55;;
46230;SDS011;31949;51.404;-0.038;2023-04-06T02:29:12;1.55;;;1.45;;
46230;SDS011;31949;51.404;-0.038;2023-04-06T02:31:39;1.50;;;1.40;;
46230;SDS011;31949;51.404;-0.038;2023-04-06T02:34:07;1.60;;;1.50;;
46230;SDS011;31949;51.404;-0.038;2023-04-06T02:36:40;1.60;;;1.50;;
46230;SDS011;31949;51.404;-0.038;2023-04-06T02:39:08;1.67;;;1.58;;
46230;SDS011;31949;51.404;-0.038;2023-04-06T02:41:35;2.10;;;1.90;;
46230;SDS011;31949;51.404;-0.038;2023-04-06T02:44:04;1.77;;;1.45;;
46230;SDS011;31949;51.404;-0.038;2023-04-06T02:46:41;1.60;;;1.48;;
46230;SDS011;31949;51.404;-0.038;2023-04-06T02:49:08;2.42;;;2.22;;
46230;SDS011;31949;51.404;-0.038;2023-04-06T02:51:36;1.77;;;1.67;;
46230;SDS011;31949;51.404;-0.038;2023-04-06T02:54:17;1.88;;;1.77;;
46230;SDS011;31949;51.404;-0.038;2023-04-06T02:56:44;1.52;;;1.42;;
46230;SDS011;31949;51.404;-0.038;2023-04-06T02:59:12;2.38;;;1.80;;
46230;SDS011;31949;51.404;-0.038;2023-04-06T03:01:45;1.90;;;1.75;;
46230;SDS011;31949;51.404;-0.038;2023-04-06T03:04:13;1.60;;;1.50;;
46230;SDS011;31949;51.404;-0.038;2023-04-06T03:06:40;2.65;;;1.90;;
46230;SDS011;31949;51.404;-0.038;2023-04-06T03:09:18;2.40;;;1.67;;
46230;SDS011;31949;51.404;-0.038;2023-04-06T03:11:46;1.70;;;1.25;;
46230;SDS011;31949;51.404;-0.038;2023-04-06T03:14:13;1.50;;;1.35;;
46230;SDS011;31949;51.404;-0.038;2023-04-06T03:16:41;2.08;;;1.60;;
46230;SDS011;31949;51.404;-0.038;2023-04-06T03:19:08;1.05;;;0.95;;
46230;SDS011;31949;51.404;-0.038;2023-04-06T03:21:36;0.80;;;0.80;;
46230;SDS011;31949;51.404;-0.038;2023-04-06T03:24:04;1.30;;;0.75;;
46230;SDS011;31949;51.404;-0.038;2023-04-06T03:26:32;0.80;;;0.80;;
46230;SDS011;31949;51.404;-0.038;2023-04-06T03:29:03;0.73;;;0.70;;
46230;SDS011;31949;51.404;-0.038;2023-04-06T03:31:31;1.67;;;1.35;;
46230;SDS011;31949;51.404;-0.038;2023-04-06T03:34:05;0.50;;;0.50;;
46230;SDS011;31949;51.404;-0.038;2023-04-06T03:36:34;0.50;;;0.50;;
46230;SDS011;31949;51.404;-0.038;2023-04-06T03:39:04;0.70;;;0.70;;
46230;SDS011;31949;51.404;-0.038;2023-04-06T03:41:35;0.60;;;0.60;;
46230;SDS011;31949;51.404;-0.038;2023-04-06T03:44:10;1.15;;;0.63;;
46230;SDS011;31949;51.404;-0.038;2023-04-06T03:46:37;0.60;;;0.60;;
46230;SDS011;31949;51.404;-0.038;2023-04-06T03:49:05;0.60;;;0.60;;
46230;SDS011;31949;51.404;-0.038;2023-04-06T03:51:33;1.00;;;1.00;;
46230;SDS011;31949;51.404;-0.038;2023-04-06T03:54:00;0.75;;;0.75;;
46230;SDS011;31949;51.404;-0.038;2023-04-06T03:56:28;0.80;;;0.80;;
46230;SDS011;31949;51.404;-0.038;2023-04-06T03:58:55;0.75;;;0.75;;
46230;SDS011;31949;51.404;-0.038;2023-04-06T04:01:22;1.25;;;1.15;;
46230;SDS011;31949;51.404;-0.038;2023-04-06T04:03:49;1.10;;;1.10;;
46230;SDS011;31949;51.404;-0.038;2023-04-06T04:06:17;1.48;;;0.98;;
46230;SDS011;31949;51.404;-0.038;2023-04-06T04:08:45;1.75;;;1.52;;
46230;SDS011;31949;51.404;-0.038;2023-04-06T04:11:12;2.40;;;2.20;;
46230;SDS011;31949;51.404;-0.038;2023-04-06T04:13:39;1.90;;;1.70;;
46230;SDS011;31949;51.404;-0.038;2023-04-06T04:16:08;1.95;;;1.80;;
46230;SDS011;31949;51.404;-0.038;2023-04-06T04:18:35;1.90;;;1.80;;
46230;SDS011;31949;51.404;-0.038;2023-04-06T04:21:04;1.92;;;1.83;;
46230;SDS011;31949;51.404;-0.038;2023-04-06T04:23:31;1.83;;;1.73;;
46230;SDS011;31949;51.404;-0.038;2023-04-06T04:26:02;2.10;;;1.90;;
46230;SDS011;31949;51.404;-0.038;2023-04-06T04:28:29;2.75;;;2.53;;
46230;SDS011;31949;51.404;-0.038;2023-04-06T04:30:57;2.50;;;2.30;;
46230;SDS011;31949;51.404;-0.038;2023-04-06T04:33:24;2.30;;;1.80;;
46230;SDS011;31949;51.404;-0.038;2023-04-06T04:35:54;2.55;;;2.35;;
46230;SDS011;31949;51.404;-0.038;2023-04-06T04:38:24;3.90;;;3.17;;
46230;SDS011;31949;51.404;-0.038;2023-04-06T04:40:54;3.50;;;3.20;;
46230;SDS011;31949;51.404;-0.038;2023-04-06T04:43:21;3.65;;;3.30;;
46230;SDS011;31949;51.404;-0.038;2023-04-06T04:45:49;3.80;;;3.50;;
46230;SDS011;31949;51.404;-0.038;2023-04-06T04:48:36;3.15;;;2.85;;
46230;SDS011;31949;51.404;-0.038;2023-04-06T04:51:06;3.33;;;3.03;;
46230;SDS011;31949;51.404;-0.038;2023-04-06T04:53:53;3.60;;;3.30;;
46230;SDS011;31949;51.404;-0.038;2023-04-06T04:56:24;3.58;;;3.10;;
46230;SDS011;31949;51.404;-0.038;2023-04-06T04:58:57;5.05;;;3.65;;
46230;SDS011;31949;51.404;-0.038;2023-04-06T05:01:28;4.13;;;3.28;;
46230;SDS011;31949;51.404;-0.038;2023-04-06T05:06:27;4.15;;;3.85;;
46230;SDS011;31949;51.404;-0.038;2023-04-06T05:08:54;3.97;;;3.33;;
46230;SDS011;31949;51.404;-0.038;2023-04-06T05:11:22;3.78;;;3.47;;
46230;SDS011;31949;51.404;-0.038;2023-04-06T05:13:56;4.63;;;4.22;;
46230;SDS011;31949;51.404;-0.038;2023-04-06T05:16:24;3.83;;;3.50;;
46230;SDS011;31949;51.404;-0.038;2023-04-06T05:18:51;4.25;;;3.25;;
46230;SDS011;31949;51.404;-0.038;2023-04-06T05:21:19;4.28;;;3.88;;
46230;SDS011;31949;51.404;-0.038;2023-04-06T05:24:00;5.18;;;4.68;;
46230;SDS011;31949;51.404;-0.038;2023-04-06T05:26:30;4.47;;;4.07;;
46230;SDS011;31949;51.404;-0.038;2023-04-06T05:29:04;4.50;;;4.10;;
46230;SDS011;31949;51.404;-0.038;2023-04-06T05:31:35;4.65;;;4.25;;
46230;SDS011;31949;51.404;-0.038;2023-04-06T05:34:02;5.43;;;4.93;;
46230;SDS011;31949;51.404;-0.038;2023-04-06T05:36:33;4.30;;;3.97;;
46230;SDS011;31949;51.404;-0.038;2023-04-06T05:39:06;6.07;;;5.03;;
46230;SDS011;31949;51.404;-0.038;2023-04-06T05:41:39;6.80;;;6.10;;
46230;SDS011;31949;51.404;-0.038;2023-04-06T05:44:09;5.82;;;4.65;;
46230;SDS011;31949;51.404;-0.038;2023-04-06T05:46:38;6.13;;;5.00;;
46230;SDS011;31949;51.404;-0.038;2023-04-06T05:49:10;5.10;;;4.60;;
46230;SDS011;31949;51.404;-0.038;2023-04-06T05:51:38;6.60;;;5.10;;
46230;SDS011;31949;51.404;-0.038;2023-04-06T05:54:06;7.07;;;6.07;;
46230;SDS011;31949;51.404;-0.038;2023-04-06T05:56:33;7.90;;;5.63;;
46230;SDS011;31949;51.404;-0.038;2023-04-06T05:59:01;7.35;;;5.97;;
46230;SDS011;31949;51.404;-0.038;2023-04-06T06:01:30;5.45;;;4.45;;
46230;SDS011;31949;51.404;-0.038;2023-04-06T06:03:59;6.95;;;5.53;;
46230;SDS011;31949;51.404;-0.038;2023-04-06T06:06:30;6.93;;;5.78;;
46230;SDS011;31949;51.404;-0.038;2023-04-06T06:09:26;9.07;;;6.63;;
46230;SDS011;31949;51.404;-0.038;2023-04-06T06:12:12;6.38;;;5.50;;
46230;SDS011;31949;51.404;-0.038;2023-04-06T06:14:40;6.82;;;6.10;;
46230;SDS011;31949;51.404;-0.038;2023-04-06T06:17:09;7.65;;;6.13;;
46230;SDS011;31949;51.404;-0.038;2023-04-06T06:19:36;7.93;;;6.28;;
46230;SDS011;31949;51.404;-0.038;2023-04-06T06:22:06;5.30;;;4.63;;
46230;SDS011;31949;51.404;-0.038;2023-04-06T06:24:38;6.43;;;4.70;;
46230;SDS011;31949;51.404;-0.038;2023-04-06T06:27:06;6.88;;;6.15;;
46230;SDS011;31949;51.404;-0.038;2023-04-06T06:29:36;6.15;;;4.50;;
46230;SDS011;31949;51.404;-0.038;2023-04-06T06:32:03;8.07;;;5.72;;
46230;SDS011;31949;51.404;-0.038;2023-04-06T06:34:31;5.47;;;4.75;;
46230;SDS011;31949;51.404;-0.038;2023-04-06T06:37:02;7.07;;;5.32;;
46230;SDS011;31949;51.404;-0.038;2023-04-06T06:39:29;5.90;;;5.05;;
46230;SDS011;31949;51.404;-0.038;2023-04-06T06:41:57;6.35;;;5.10;;
46230;SDS011;31949;51.404;-0.038;2023-04-06T06:44:49;5.40;;;4.03;;
46230;SDS011;31949;51.404;-0.038;2023-04-06T06:47:16;5.63;;;4.72;;
46230;SDS011;31949;51.404;-0.038;2023-04-06T06:49:44;4.32;;;3.75;;
46230;SDS011;31949;51.404;-0.038;2023-04-06T06:52:11;7.38;;;4.03;;
46230;SDS011;31949;51.404;-0.038;2023-04-06T06:54:38;5.30;;;4.05;;
46230;SDS011;31949;51.404;-0.038;2023-04-06T06:57:05;3.75;;;3.45;;
46230;SDS011;31949;51.404;-0.038;2023-04-06T06:59:33;4.70;;;3.40;;
46230;SDS011;31949;51.404;-0.038;2023-04-06T07:02:00;4.18;;;3.22;;
46230;SDS011;31949;51.404;-0.038;2023-04-06T07:04:28;4.85;;;4.13;;
46230;SDS011;31949;51.404;-0.038;2023-04-06T07:06:55;4.35;;;3.95;;
46230;SDS011;31949;51.404;-0.038;2023-04-06T07:09:22;3.90;;;3.08;;
46230;SDS011;31949;51.404;-0.038;2023-04-06T07:11:50;3.78;;;3.40;;
46230;SDS011;31949;51.404;-0.038;2023-04-06T07:14:17;4.43;;;3.60;;
46230;SDS011;31949;51.404;-0.038;2023-04-06T07:16:45;5.10;;;3.08;;
46230;SDS011;31949;51.404;-0.038;2023-04-06T07:19:14;3.65;;;3.35;;
46230;SDS011;31949;51.404;-0.038;2023-04-06T07:21:42;3.70;;;3.30;;
46230;SDS011;31949;51.404;-0.038;2023-04-06T07:24:09;3.80;;;3.42;;
46230;SDS011;31949;51.404;-0.038;2023-04-06T07:26:37;3.72;;;3.42;;
46230;SDS011;31949;51.404;-0.038;2023-04-06T07:29:04;3.38;;;3.08;;
46230;SDS011;31949;51.404;-0.038;2023-04-06T07:31:31;3.50;;;3.20;;
46230;SDS011;31949;51.404;-0.038;2023-04-06T07:34:00;3.67;;;3.33;;
46230;SDS011;31949;51.404;-0.038;2023-04-06T07:36:27;4.22;;;3.80;;
46230;SDS011;31949;51.404;-0.038;2023-04-06T07:38:54;4.00;;;3.10;;
46230;SDS011;31949;51.404;-0.038;2023-04-06T07:41:22;3.72;;;2.92;;
46230;SDS011;31949;51.404;-0.038;2023-04-06T07:43:50;5.85;;;2.95;;
46230;SDS011;31949;51.404;-0.038;2023-04-06T07:46:17;3.35;;;3.00;;
46230;SDS011;31949;51.404;-0.038;2023-04-06T07:48:45;2.67;;;2.47;;
46230;SDS011;31949;51.404;-0.038;2023-04-06T07:51:12;3.28;;;3.00;;
46230;SDS011;31949;51.404;-0.038;2023-04-06T07:53:43;2.40;;;2.20;;
46230;SDS011;31949;51.404;-0.038;2023-04-06T07:56:11;4.18;;;2.45;;
46230;SDS011;31949;51.404;-0.038;2023-04-06T07:58:42;4.13;;;3.05;;
46230;SDS011;31949;51.404;-0.038;2023-04-06T08:01:09;3.85;;;2.10;;
46230;SDS011;31949;51.404;-0.038;2023-04-06T08:03:37;3.20;;;2.40;;
46230;SDS011;31949;51.404;-0.038;2023-04-06T08:06:04;5.05;;;2.35;;
46230;SDS011;31949;51.404;-0.038;2023-04-06T08:08:32;4.22;;;2.10;;
46230;SDS011;31949;51.404;-0.038;2023-04-06T08:10:59;4.97;;;2.72;;
46230;SDS011;31949;51.404;-0.038;2023-04-06T08:13:29;4.45;;;2.40;;
46230;SDS011;31949;51.404;-0.038;2023-04-06T08:15:57;3.85;;;1.60;;
46230;SDS011;31949;51.404;-0.038;2023-04-06T08:18:25;5.03;;;1.58;;
46230;SDS011;31949;51.404;-0.038;2023-04-06T08:20:52;4.15;;;1.60;;
46230;SDS011;31949;51.404;-0.038;2023-04-06T08:23:21;4.95;;;1.65;;
46230;SDS011;31949;51.404;-0.038;2023-04-06T08:25:48;5.22;;;1.60;;
46230;SDS011;31949;51.404;-0.038;2023-04-06T08:28:15;3.75;;;1.33;;
46230;SDS011;31949;51.404;-0.038;2023-04-06T08:30:43;10.73;;;2.47;;
46230;SDS011;31949;51.404;-0.038;2023-04-06T08:33:10;7.18;;;1.50;;
46230;SDS011;31949;51.404;-0.038;2023-04-06T08:35:38;6.70;;;2.17;;
46230;SDS011;31949;51.404;-0.038;2023-04-06T08:38:06;7.32;;;1.60;;
46230;SDS011;31949;51.404;-0.038;2023-04-06T08:40:37;8.40;;;2.38;;
46230;SDS011;31949;51.404;-0.038;2023-04-06T08:43:08;6.38;;;1.95;;
46230;SDS011;31949;51.404;-0.038;2023-04-06T08:45:40;4.07;;;1.25;;
46230;SDS011;31949;51.404;-0.038;2023-04-06T08:48:08;8.68;;;1.92;;
46230;SDS011;31949;51.404;-0.038;2023-04-06T08:50:35;6.78;;;1.63;;
46230;SDS011;31949;51.404;-0.038;2023-04-06T08:53:05;6.80;;;2.05;;
46230;SDS011;31949;51.404;-0.038;2023-04-06T08:55:33;7.65;;;2.00;;
46230;SDS011;31949;51.404;-0.038;2023-04-06T08:58:02;5.28;;;1.75;;
46230;SDS011;31949;51.404;-0.038;2023-04-06T09:00:33;7.22;;;2.10;;
46230;SDS011;31949;51.404;-0.038;2023-04-06T09:03:05;9.38;;;1.80;;
46230;SDS011;31949;51.404;-0.038;2023-04-06T09:05:37;5.60;;;2.47;;
46230;SDS011;31949;51.404;-0.038;2023-04-06T09:08:05;4.75;;;1.85;;
46230;SDS011;31949;51.404;-0.038;2023-04-06T09:10:33;8.20;;;1.58;;
46230;SDS011;31949;51.404;-0.038;2023-04-06T09:13:05;2.88;;;1.15;;
46230;SDS011;31949;51.404;-0.038;2023-04-06T09:15:33;6.90;;;2.65;;
46230;SDS011;31949;51.404;-0.038;2023-04-06T09:18:01;8.27;;;2.20;;
46230;SDS011;31949;51.404;-0.038;2023-04-06T09:20:29;5.90;;;2.03;;
46230;SDS011;31949;51.404;-0.038;2023-04-06T09:22:56;8.30;;;2.13;;
46230;SDS011;31949;51.404;-0.038;2023-04-06T09:25:24;6.82;;;2.03;;
46230;SDS011;31949;51.404;-0.038;2023-04-06T09:28:03;6.30;;;2.45;;
46230;SDS011;31949;51.404;-0.038;2023-04-06T09:30:32;10.23;;;2.63;;
46230;SDS011;31949;51.404;-0.038;2023-04-06T09:33:03;10.35;;;2.25;;
46230;SDS011;31949;51.404;-0.038;2023-04-06T09:35:31;5.93;;;1.88;;
46230;SDS011;31949;51.404;-0.038;2023-04-06T09:38:09;5.75;;;1.70;;
46230;SDS011;31949;51.404;-0.038;2023-04-06T09:40:47;8.00;;;1.85;;
46230;SDS011;31949;51.404;-0.038;2023-04-06T09:43:27;5.47;;;2.17;;
46230;SDS011;31949;51.404;-0.038;2023-04-06T09:45:57;5.32;;;2.13;;
46230;SDS011;31949;51.404;-0.038;2023-04-06T09:48:30;10.93;;;2.60;;
46230;SDS011;31949;51.404;-0.038;2023-04-06T09:51:03;7.88;;;2.92;;
46230;SDS011;31949;51.404;-0.038;2023-04-06T09:53:32;8.00;;;2.75;;
46230;SDS011;31949;51.404;-0.038;2023-04-06T09:56:04;7.30;;;2.55;;
46230;SDS011;31949;51.404;-0.038;2023-04-06T09:58:39;15.82;;;2.88;;
46230;SDS011;31949;51.404;-0.038;2023-04-06T10:01:11;6.43;;;2.22;;
46230;SDS011;31949;51.404;-0.038;2023-04-06T10:03:50;5.80;;;2.60;;
46230;SDS011;31949;51.404;-0.038;2023-04-06T10:06:23;11.23;;;2.60;;
46230;SDS011;31949;51.404;-0.038;2023-04-06T10:08:59;8.30;;;2.72;;
46230;SDS011;31949;51.404;-0.038;2023-04-06T10:11:28;4.43;;;2.13;;
46230;SDS011;31949;51.404;-0.038;2023-04-06T10:13:56;6.22;;;2.10;;
46230;SDS011;31949;51.404;-0.038;2023-04-06T10:16:23;6.10;;;2.08;;
46230;SDS011;31949;51.404;-0.038;2023-04-06T10:18:54;10.40;;;3.40;;
46230;SDS011;31949;51.404;-0.038;2023-04-06T10:21:28;8.35;;;2.70;;
46230;SDS011;31949;51.404;-0.038;2023-04-06T10:23:58;9.15;;;2.88;;
46230;SDS011;31949;51.404;-0.038;2023-04-06T10:26:28;5.32;;;1.95;;
46230;SDS011;31949;51.404;-0.038;2023-04-06T10:28:55;7.03;;;2.40;;
46230;SDS011;31949;51.404;-0.038;2023-04-06T10:31:28;7.57;;;2.15;;
46230;SDS011;31949;51.404;-0.038;2023-04-06T10:33:56;3.60;;;2.20;;
46230;SDS011;31949;51.404;-0.038;2023-04-06T10:36:32;9.00;;;2.00;;
46230;SDS011;31949;51.404;-0.038;2023-04-06T10:39:02;6.43;;;1.70;;
46230;SDS011;31949;51.404;-0.038;2023-04-06T10:41:32;4.53;;;1.45;;
46230;SDS011;31949;51.404;-0.038;2023-04-06T10:44:01;5.38;;;1.65;;
46230;SDS011;31949;51.404;-0.038;2023-04-06T10:46:30;6.18;;;2.17;;
46230;SDS011;31949;51.404;-0.038;2023-04-06T10:48:58;86.95;;;15.43;;
46230;SDS011;31949;51.404;-0.038;2023-04-06T10:51:40;4.68;;;2.20;;
46230;SDS011;31949;51.404;-0.038;2023-04-06T10:54:07;4.45;;;1.90;;
46230;SDS011;31949;51.404;-0.038;2023-04-06T10:56:37;6.35;;;1.50;;
46230;SDS011;31949;51.404;-0.038;2023-04-06T10:59:06;3.85;;;1.35;;
46230;SDS011;31949;51.404;-0.038;2023-04-06T11:01:34;6.97;;;3.03;;
46230;SDS011;31949;51.404;-0.038;2023-04-06T11:04:01;5.38;;;1.70;;
46230;SDS011;31949;51.404;-0.038;2023-04-06T11:06:30;4.15;;;1.73;;
46230;SDS011;31949;51.404;-0.038;2023-04-06T11:08:59;5.22;;;1.50;;
46230;SDS011;31949;51.404;-0.038;2023-04-06T11:11:29;3.67;;;1.45;;
46230;SDS011;31949;51.404;-0.038;2023-04-06T11:13:57;9.07;;;1.95;;
46230;SDS011;31949;51.404;-0.038;2023-04-06T11:16:26;3.60;;;1.50;;
46230;SDS011;31949;51.404;-0.038;2023-04-06T11:21:41;2.85;;;1.33;;
46230;SDS011;31949;51.404;-0.038;2023-04-06T11:24:11;1.27;;;1.08;;
46230;SDS011;31949;51.404;-0.038;2023-04-06T11:26:49;3.38;;;1.30;;
46230;SDS011;31949;51.404;-0.038;2023-04-06T11:29:19;4.15;;;1.83;;
46230;SDS011;31949;51.404;-0.038;2023-04-06T11:31:49;2.63;;;1.40;;
46230;SDS011;31949;51.404;-0.038;2023-04-06T11:34:21;3.65;;;1.85;;
46230;SDS011;31949;51.404;-0.038;2023-04-06T11:37:00;5.60;;;2.55;;
46230;SDS011;31949;51.404;-0.038;2023-04-06T11:39:31;3.05;;;1.55;;
46230;SDS011;31949;51.404;-0.038;2023-04-06T11:47:02;3.95;;;1.95;;
46230;SDS011;31949;51.404;-0.038;2023-04-06T11:49:31;4.15;;;3.67;;
46230;SDS011;31949;51.404;-0.038;2023-04-06T11:52:00;4.10;;;2.03;;
46230;SDS011;31949;51.404;-0.038;2023-04-06T11:54:35;3.70;;;2.08;;
46230;SDS011;31949;51.404;-0.038;2023-04-06T11:57:05;4.05;;;2.20;;
46230;SDS011;31949;51.404;-0.038;2023-04-06T11:59:32;4.78;;;1.25;;
46230;SDS011;31949;51.404;-0.038;2023-04-06T12:02:01;1.67;;;1.10;;
46230;SDS011;31949;51.404;-0.038;2023-04-06T12:04:32;2.78;;;1.80;;
46230;SDS011;31949;51.404;-0.038;2023-04-06T12:07:00;3.88;;;1.63;;
46230;SDS011;31949;51.404;-0.038;2023-04-06T12:09:27;4.38;;;1.25;;
46230;SDS011;31949;51.404;-0.038;2023-04-06T12:11:54;4.88;;;3.10;;
46230;SDS011;31949;51.404;-0.038;2023-04-06T12:14:22;4.88;;;3.00;;
46230;SDS011;31949;51.404;-0.038;2023-04-06T12:16:50;4.60;;;1.90;;
46230;SDS011;31949;51.404;-0.038;2023-04-06T12:19:17;7.80;;;7.10;;
46230;SDS011;31949;51.404;-0.038;2023-04-06T12:21:44;22.00;;;20.00;;
46230;SDS011;31949;51.404;-0.038;2023-04-06T12:24:12;5.05;;;3.38;;
46230;SDS011;31949;51.404;-0.038;2023-04-06T12:26:39;3.83;;;1.42;;
46230;SDS011;31949;51.404;-0.038;2023-04-06T12:29:07;2.97;;;1.85;;
46230;SDS011;31949;51.404;-0.038;2023-04-06T12:31:35;3.20;;;1.30;;
46230;SDS011;31949;51.404;-0.038;2023-04-06T12:34:05;3.30;;;1.20;;
46230;SDS011;31949;51.404;-0.038;2023-04-06T12:36:33;2.78;;;1.13;;
46230;SDS011;31949;51.404;-0.038;2023-04-06T12:39:01;1.83;;;0.65;;
46230;SDS011;31949;51.404;-0.038;2023-04-06T12:41:29;2.40;;;1.20;;
46230;SDS011;31949;51.404;-0.038;2023-04-06T12:43:57;2.25;;;0.88;;
46230;SDS011;31949;51.404;-0.038;2023-04-06T12:46:26;1.77;;;0.90;;
46230;SDS011;31949;51.404;-0.038;2023-04-06T12:48:53;4.18;;;1.10;;
46230;SDS011;31949;51.404;-0.038;2023-04-06T12:51:21;1.30;;;0.80;;
46230;SDS011;31949;51.404;-0.038;2023-04-06T12:53:50;4.38;;;1.10;;
46230;SDS011;31949;51.404;-0.038;2023-04-06T12:56:21;3.70;;;0.85;;
46230;SDS011;31949;51.404;-0.038;2023-04-06T12:58:52;0.85;;;0.82;;
46230;SDS011;31949;51.404;-0.038;2023-04-06T13:01:19;3.38;;;1.08;;
46230;SDS011;31949;51.404;-0.038;2023-04-06T13:03:47;2.22;;;0.73;;
46230;SDS011;31949;51.404;-0.038;2023-04-06T13:06:15;1.17;;;0.70;;
46230;SDS011;31949;51.404;-0.038;2023-04-06T13:08:42;1.98;;;1.17;;
46230;SDS011;31949;51.404;-0.038;2023-04-06T13:11:10;2.55;;;1.15;;
46230;SDS011;31949;51.404;-0.038;2023-04-06T13:13:37;2.90;;;1.00;;
46230;SDS011;31949;51.404;-0.038;2023-04-06T13:16:05;3.03;;;0.80;;
46230;SDS011;31949;51.404;-0.038;2023-04-06T13:18:35;2.85;;;1.38;;
46230;SDS011;31949;51.404;-0.038;2023-04-06T13:21:05;4.25;;;0.77;;
46230;SDS011;31949;51.404;-0.038;2023-04-06T13:23:33;2.70;;;0.60;;
46230;SDS011;31949;51.404;-0.038;2023-04-06T13:26:02;2.65;;;0.93;;
46230;SDS011;31949;51.404;-0.038;2023-04-06T13:28:32;2.08;;;0.77;;
46230;SDS011;31949;51.404;-0.038;2023-04-06T13:31:06;1.95;;;0.93;;
46230;SDS011;31949;51.404;-0.038;2023-04-06T13:33:34;2.45;;;0.98;;
46230;SDS011;31949;51.404;-0.038;2023-04-06T13:36:02;0.93;;;0.60;;
46230;SDS011;31949;51.404;-0.038;2023-04-06T13:38:29;6.15;;;1.50;;
46230;SDS011;31949;51.404;-0.038;2023-04-06T13:40:57;2.38;;;0.52;;
46230;SDS011;31949;51.404;-0.038;2023-04-06T13:43:24;2.95;;;1.25;;
46230;SDS011;31949;51.404;-0.038;2023-04-06T13:45:54;2.22;;;1.13;;
46230;SDS011;31949;51.404;-0.038;2023-04-06T13:48:22;2.72;;;0.82;;
46230;SDS011;31949;51.404;-0.038;2023-04-06T13:50:50;1.98;;;0.80;;
46230;SDS011;31949;51.404;-0.038;2023-04-06T13:53:17;3.20;;;0.65;;
46230;SDS011;31949;51.404;-0.038;2023-04-06T13:55:51;4.78;;;0.85;;
46230;SDS011;31949;51.404;-0.038;2023-04-06T13:58:19;2.55;;;1.00;;
46230;SDS011;31949;51.404;-0.038;2023-04-06T14:00:47;2.75;;;1.15;;
46230;SDS011;31949;51.404;-0.038;2023-04-06T14:03:15;1.88;;;1.00;;
46230;SDS011;31949;51.404;-0.038;2023-04-06T14:05:42;2.75;;;0.90;;
46230;SDS011;31949;51.404;-0.038;2023-04-06T14:08:10;2.08;;;1.02;;
46230;SDS011;31949;51.404;-0.038;2023-04-06T14:10:38;2.17;;;1.00;;
46230;SDS011;31949;51.404;-0.038;2023-04-06T14:13:07;2.65;;;1.23;;
46230;SDS011;31949;51.404;-0.038;2023-04-06T14:15:35;2.38;;;1.08;;
46230;SDS011;31949;51.404;-0.038;2023-04-06T14:18:02;5.32;;;1.35;;
46230;SDS011;31949;51.404;-0.038;2023-04-06T14:20:33;1.75;;;0.70;;
46230;SDS011;31949;51.404;-0.038;2023-04-06T14:23:01;3.90;;;1.50;;
46230;SDS011;31949;51.404;-0.038;2023-04-06T14:25:29;2.53;;;0.85;;
46230;SDS011;31949;51.404;-0.038;2023-04-06T14:30:29;2.15;;;0.95;;
46230;SDS011;31949;51.404;-0.038;2023-04-06T14:32:57;1.88;;;1.00;;
46230;SDS011;31949;51.404;-0.038;2023-04-06T14:35:25;2.97;;;0.40;;
46230;SDS011;31949;51.404;-0.038;2023-04-06T14:37:55;4.15;;;1.15;;
46230;SDS011;31949;51.404;-0.038;2023-04-06T14:40:33;4.50;;;1.23;;
46230;SDS011;31949;51.404;-0.038;2023-04-06T14:43:03;2.33;;;0.60;;
46230;SDS011;31949;51.404;-0.038;2023-04-06T14:45:32;3.88;;;0.65;;
46230;SDS011;31949;51.404;-0.038;2023-04-06T14:48:03;2.42;;;1.02;;
46230;SDS011;31949;51.404;-0.038;2023-04-06T14:50:36;3.72;;;0.90;;
46230;SDS011;31949;51.404;-0.038;2023-04-06T14:53:09;4.47;;;1.30;;
46230;SDS011;31949;51.404;-0.038;2023-04-06T14:55:40;2.30;;;1.15;;
46230;SDS011;31949;51.404;-0.038;2023-04-06T14:58:08;1.70;;;1.50;;
46230;SDS011;31949;51.404;-0.038;2023-04-06T15:00:39;3.13;;;1.33;;
46230;SDS011;31949;51.404;-0.038;2023-04-06T15:03:18;3.05;;;2.15;;